Time;durP1;ratioP1;P1;durP2;ratioP2;P2;SDS_P1;SDS_P2;PMS_P1;PMS_P2;Temp;Humidity;BMP_temperature;BMP_pressure;BME280_temperature;BME280_humidity;BME280_pressure;Samples;Min_cycle;Max_cycle;Signal;HPM_P1;HPM_P2
2022/02/08 00:01:23;;;;;;;0.50;0.50;;;6.50;40.30;;;;;;6183217;23;20032;-79
2022/02/08 00:03:49;;;;;;;0.85;0.40;;;6.60;40.10;;;;;;6183152;23;20088;-79
2022/02/08 00:08:44;;;;;;;0.30;0.30;;;6.50;40.90;;;;;;6183054;23;20096;-79
2022/02/08 00:11:10;;;;;;;0.80;0.73;;;6.50;40.20;;;;;;6156714;23;20037;-79
2022/02/08 00:13:36;;;;;;;0.60;0.60;;;6.50;40.10;;;;;;6156531;23;20013;-79
2022/02/08 00:16:02;;;;;;;0.60;0.60;;;6.60;40.20;;;;;;6183089;23;20011;-79
2022/02/08 00:18:28;;;;;;;0.80;0.80;;;6.50;40.40;;;;;;6183043;23;19997;-78
2022/02/08 00:20:53;;;;;;;0.50;0.50;;;6.50;40.40;;;;;;6182702;23;20001;-78
2022/02/08 00:23:19;;;;;;;1.20;0.75;;;6.50;40.30;;;;;;6183037;23;20091;-79
2022/02/08 00:25:45;;;;;;;1.10;0.55;;;6.50;40.60;;;;;;6182894;23;20032;-79
2022/02/08 00:28:11;;;;;;;3.45;0.70;;;6.50;40.20;;;;;;6182867;23;20220;-78
2022/02/08 00:30:37;;;;;;;0.80;0.77;;;6.50;40.50;;;;;;6156530;23;20005;-79
2022/02/08 00:33:02;;;;;;;0.88;0.60;;;6.50;40.40;;;;;;6183077;23;20464;-78
2022/02/08 00:35:28;;;;;;;0.85;0.60;;;6.40;40.60;;;;;;6182829;23;20001;-79
2022/02/08 00:37:54;;;;;;;1.02;0.55;;;6.40;40.90;;;;;;6182615;23;20450;-79
2022/02/08 00:40:21;;;;;;;0.40;0.40;;;6.40;41.00;;;;;;6182989;23;19997;-79
2022/02/08 00:42:47;;;;;;;0.60;0.60;;;6.40;40.90;;;;;;6156211;23;20013;-79
2022/02/08 00:47:48;;;;;;;0.35;0.35;;;6.40;40.70;;;;;;6185309;23;20460;-78
2022/02/08 00:50:14;;;;;;;1.40;0.60;;;6.40;40.50;;;;;;6182848;23;20075;-79
2022/02/08 00:52:40;;;;;;;0.93;0.55;;;6.40;40.30;;;;;;6156411;23;20082;-78
2022/02/08 00:55:12;;;;;;;4.40;0.80;;;6.40;40.30;;;;;;6156153;23;20012;-79
2022/02/08 00:57:38;;;;;;;0.40;0.40;;;6.40;40.50;;;;;;6182744;23;20002;-79
2022/02/08 01:00:08;;;;;;;0.50;0.50;;;6.40;40.70;;;;;;6182849;23;20001;-79
2022/02/08 01:02:34;;;;;;;0.75;0.55;;;6.40;40.80;;;;;;6156241;23;20016;-79
2022/02/08 01:05:03;;;;;;;1.17;0.50;;;6.40;40.40;;;;;;6182812;23;20329;-78
2022/02/08 01:07:29;;;;;;;1.75;0.45;;;6.40;40.40;;;;;;6182649;23;20008;-78
2022/02/08 01:10:00;;;;;;;0.40;0.40;;;6.40;40.30;;;;;;6182598;23;20005;-79
2022/02/08 01:12:29;;;;;;;0.50;0.40;;;6.40;39.90;;;;;;6182645;23;20005;-79
2022/02/08 01:14:56;;;;;;;0.40;0.40;;;6.40;40.10;;;;;;6182577;23;20051;-78
2022/02/08 01:17:23;;;;;;;0.85;0.47;;;6.40;40.10;;;;;;6182707;23;20381;-79
2022/02/08 01:19:56;;;;;;;0.28;0.28;;;6.40;39.70;;;;;;6182513;23;20002;-79
2022/02/08 01:22:22;;;;;;;1.38;0.52;;;6.40;40.00;;;;;;6156331;23;20025;-79
2022/02/08 01:24:49;;;;;;;0.30;0.30;;;6.40;40.00;;;;;;6182636;23;20429;-79
2022/02/08 01:27:17;;;;;;;1.63;0.57;;;6.40;40.10;;;;;;6156160;23;20005;-79
2022/02/08 01:45:46;;;;;;;1.38;0.52;;;6.30;40.20;;;;;;6182587;23;20112;-78
2022/02/08 01:48:28;;;;;;;0.50;0.50;;;6.30;39.70;;;;;;6183429;23;20394;-79
2022/02/08 01:50:55;;;;;;;0.73;0.60;;;6.40;39.80;;;;;;6184440;23;20005;-78
2022/02/08 01:53:22;;;;;;;0.35;0.22;;;6.40;39.70;;;;;;6184342;23;20453;-79
2022/02/08 01:55:49;;;;;;;0.50;0.50;;;6.30;39.40;;;;;;6184417;23;20001;-79
2022/02/08 01:58:16;;;;;;;2.08;0.50;;;6.40;39.00;;;;;;6184266;23;20503;-79
2022/02/08 02:00:42;;;;;;;0.40;0.40;;;6.40;39.20;;;;;;6157917;23;20326;-79
2022/02/08 02:03:08;;;;;;;0.50;0.50;;;6.40;39.70;;;;;;6184152;23;20023;-78
2022/02/08 02:05:34;;;;;;;0.43;0.30;;;6.40;39.60;;;;;;6184191;23;20009;-79
2022/02/08 02:08:00;;;;;;;1.40;0.40;;;6.40;39.50;;;;;;6157727;23;20067;-79
2022/02/08 02:10:26;;;;;;;0.65;0.45;;;6.40;39.30;;;;;;6184351;23;20005;-79
2022/02/08 02:12:59;;;;;;;0.55;0.55;;;6.40;38.60;;;;;;6184142;23;20008;-78
2022/02/08 02:15:26;;;;;;;0.47;0.47;;;6.50;38.80;;;;;;6183923;23;20005;-79
2022/02/08 02:17:52;;;;;;;0.30;0.30;;;6.40;39.20;;;;;;6184005;23;20421;-78
2022/02/08 02:20:18;;;;;;;2.95;0.40;;;6.40;39.10;;;;;;6184271;23;20016;-79
2022/02/08 02:22:44;;;;;;;2.50;0.40;;;6.40;39.20;;;;;;6184225;23;20001;-79
2022/02/08 02:25:28;;;;;;;0.30;0.30;;;6.40;39.50;;;;;;6157707;23;20009;-79
2022/02/08 02:27:57;;;;;;;0.45;0.45;;;6.40;39.70;;;;;;6184128;23;20036;-79
2022/02/08 02:30:24;;;;;;;0.50;0.50;;;6.30;39.70;;;;;;6184084;23;20005;-79
2022/02/08 02:32:51;;;;;;;0.38;0.38;;;6.30;39.20;;;;;;6184050;23;20012;-79
2022/02/08 02:35:16;;;;;;;1.20;0.50;;;6.30;39.10;;;;;;6157537;23;20005;-79
2022/02/08 02:37:42;;;;;;;0.73;0.30;;;6.30;39.40;;;;;;6183865;23;20005;-79
2022/02/08 02:40:09;;;;;;;0.40;0.40;;;6.30;39.80;;;;;;6183961;23;20464;-79
2022/02/08 02:42:34;;;;;;;1.20;0.40;;;6.30;39.40;;;;;;6157166;23;20059;-78
2022/02/08 02:45:04;;;;;;;0.40;0.40;;;6.30;38.70;;;;;;6184072;23;20084;-79
2022/02/08 02:47:29;;;;;;;0.30;0.30;;;6.40;38.80;;;;;;6157400;23;20005;-78
2022/02/08 02:49:55;;;;;;;0.52;0.52;;;6.40;38.90;;;;;;6184014;23;20068;-78
2022/02/08 02:52:21;;;;;;;0.60;0.50;;;6.40;38.60;;;;;;6183958;23;20390;-79
2022/02/08 02:54:48;;;;;;;0.70;0.70;;;6.40;37.90;;;;;;6157199;23;20055;-79
2022/02/08 02:57:15;;;;;;;0.75;0.73;;;6.50;38.00;;;;;;6157222;23;20084;-78
2022/02/08 02:59:42;;;;;;;0.98;0.80;;;6.40;38.20;;;;;;6183392;23;19997;-79
2022/02/08 03:04:55;;;;;;;1.13;0.52;;;6.40;37.90;;;;;;6184875;23;20066;-79
2022/02/08 03:20:49;;;;;;;0.65;0.47;;;6.40;37.70;;;;;;6186067;23;20020;-79
2022/02/08 03:23:15;;;;;;;0.20;0.20;;;6.50;37.80;;;;;;6183424;23;20004;-79
2022/02/08 03:25:41;;;;;;;0.52;0.45;;;6.50;37.50;;;;;;6157004;23;20005;-79
2022/02/08 03:28:07;;;;;;;0.68;0.57;;;6.50;37.40;;;;;;6183489;23;20019;-78
2022/02/08 03:30:33;;;;;;;0.38;0.38;;;6.50;37.40;;;;;;6157004;23;20369;-79
2022/02/08 03:32:59;;;;;;;0.50;0.50;;;6.50;37.90;;;;;;6183321;23;20005;-79
2022/02/08 03:35:25;;;;;;;0.98;0.30;;;6.40;38.10;;;;;;6183382;23;20005;-79
2022/02/08 03:37:58;;;;;;;0.28;0.28;;;6.50;38.10;;;;;;6183432;23;19997;-79
2022/02/08 03:40:58;;;;;;;0.68;0.40;;;6.50;37.40;;;;;;6183471;23;20020;-79
2022/02/08 03:45:54;;;;;;;0.32;0.32;;;6.50;37.10;;;;;;6184494;23;19908;-79
2022/02/08 03:48:22;;;;;;;;;;;6.40;37.70;;;;;;6183858;23;20037;-79
2022/02/08 03:51:01;;;;;;;0.63;0.50;;;6.40;37.70;;;;;;6183468;23;19975;-79
2022/02/08 03:53:27;;;;;;;0.50;0.50;;;6.30;38.40;;;;;;6183156;23;20373;-79
2022/02/08 03:55:53;;;;;;;1.02;0.50;;;6.30;38.60;;;;;;6183137;23;20001;-79
2022/02/08 03:58:19;;;;;;;0.47;0.30;;;6.20;38.50;;;;;;6157315;23;20008;-79
2022/02/08 04:03:26;;;;;;;0.40;0.30;;;6.20;38.40;;;;;;6187646;23;20016;-79
2022/02/08 04:05:53;;;;;;;0.30;0.30;;;6.30;36.80;;;;;;6183851;23;19997;-79
2022/02/08 04:08:20;;;;;;;1.35;0.30;;;6.30;36.60;;;;;;6183779;23;20054;-79
2022/02/08 04:10:46;;;;;;;0.30;0.30;;;6.40;36.70;;;;;;6156988;23;20088;-79
2022/02/08 04:32:05;;;;;;;1.25;0.80;;;6.30;36.80;;;;;;6183667;23;20012;-79
2022/02/08 04:47:29;;;;;;;0.35;0.35;;;6.30;37.60;;;;;;6185652;23;20013;-79
2022/02/08 04:49:55;;;;;;;0.50;0.50;;;6.20;38.60;;;;;;6157121;23;20008;-79
2022/02/08 04:52:23;;;;;;;2.17;0.40;;;6.10;39.60;;;;;;6183470;23;20377;-79
2022/02/08 04:57:47;;;;;;;0.40;0.40;;;5.80;41.60;;;;;;6183815;23;20028;-79
2022/02/08 05:00:36;;;;;;;0.90;0.50;;;5.60;42.50;;;;;;6183463;23;20029;-79
2022/02/08 05:35:58;;;;;;;1.75;0.50;;;4.90;44.60;;;;;;6185341;23;20016;-79
2022/02/08 05:44:11;;;;;;;0.40;0.40;;;4.80;45.70;;;;;;6185025;23;20480;-78
2022/02/08 05:46:49;;;;;;;1.55;0.50;;;4.60;47.50;;;;;;6158171;23;20032;-79
2022/02/08 05:49:24;;;;;;;0.73;0.73;;;4.50;47.70;;;;;;6183937;23;20059;-79
2022/02/08 05:54:17;;;;;;;1.48;0.60;;;4.20;49.10;;;;;;6185643;23;20108;-79
2022/02/08 05:56:46;;;;;;;1.58;0.82;;;4.30;48.60;;;;;;6183832;23;20451;-79
2022/02/08 05:59:11;;;;;;;1.90;0.85;;;4.30;48.90;;;;;;6183576;23;20031;-79
2022/02/08 06:01:37;;;;;;;3.50;0.85;;;4.30;48.40;;;;;;6183871;23;20153;-79
2022/02/08 06:04:03;;;;;;;1.33;0.50;;;4.30;47.70;;;;;;6184822;23;20012;-79
2022/02/08 06:06:31;;;;;;;2.40;0.60;;;4.20;48.50;;;;;;6185246;23;20005;-79
2022/02/08 06:08:57;;;;;;;0.70;0.52;;;4.20;48.60;;;;;;6184829;23;20067;-79
2022/02/08 06:11:24;;;;;;;0.80;0.52;;;4.10;49.60;;;;;;6185174;23;20008;-79
2022/02/08 06:13:52;;;;;;;2.67;1.27;;;4.10;49.20;;;;;;6185038;23;20452;-79
2022/02/08 06:16:20;;;;;;;1.65;0.50;;;4.20;49.00;;;;;;6184755;23;20001;-79
2022/02/08 06:18:46;;;;;;;2.88;1.20;;;4.20;48.60;;;;;;6184731;23;20001;-79
2022/02/08 06:21:12;;;;;;;0.60;0.60;;;4.30;48.20;;;;;;6185186;23;20083;-79
2022/02/08 06:23:38;;;;;;;2.58;1.27;;;4.20;48.10;;;;;;6158148;23;20000;-79
2022/02/08 06:26:04;;;;;;;1.95;0.70;;;4.10;48.00;;;;;;6183576;23;20430;-79
2022/02/08 06:28:30;;;;;;;0.55;0.40;;;4.10;49.30;;;;;;6184687;23;20440;-79
2022/02/08 06:30:56;;;;;;;0.60;0.60;;;4.00;50.30;;;;;;6158286;23;20005;-79
2022/02/08 06:33:22;;;;;;;0.82;0.63;;;3.80;50.60;;;;;;6184741;23;20032;-79
2022/02/08 06:35:49;;;;;;;5.65;1.17;;;3.80;51.40;;;;;;6182175;23;20012;-79
2022/02/08 06:38:17;;;;;;;1.95;0.60;;;3.80;50.50;;;;;;6182493;23;20142;-79
2022/02/08 06:40:47;;;;;;;1.77;0.80;;;3.80;50.70;;;;;;6156282;23;20060;-79
2022/02/08 06:43:12;;;;;;;2.75;1.08;;;3.80;50.70;;;;;;6182371;23;20187;-79
2022/02/08 06:45:39;;;;;;;0.67;0.67;;;3.70;49.90;;;;;;6182497;23;20013;-79
2022/02/08 06:48:07;;;;;;;1.02;0.70;;;3.60;51.00;;;;;;6182412;23;20009;-79
2022/02/08 06:50:33;;;;;;;0.82;0.65;;;3.70;51.30;;;;;;6157301;23;20075;-79
2022/02/08 06:52:58;;;;;;;2.15;1.00;;;3.60;52.10;;;;;;6184446;23;20005;-79
2022/02/08 06:55:26;;;;;;;1.13;0.70;;;3.70;52.10;;;;;;6184575;23;20325;-79
2022/02/08 06:58:00;;;;;;;5.28;1.95;;;3.70;52.50;;;;;;6158058;23;20318;-79
2022/02/08 07:00:36;;;;;;;1.43;1.33;;;3.70;52.80;;;;;;6184638;23;20448;-79
2022/02/08 07:03:09;;;;;;;4.30;2.25;;;3.50;54.00;;;;;;6184344;23;20010;-79
2022/02/08 07:05:36;;;;;;;1.87;1.20;;;3.50;54.20;;;;;;6184451;23;20005;-79
2022/02/08 07:08:02;;;;;;;2.08;1.60;;;3.40;54.30;;;;;;6184137;23;19997;-79
2022/02/08 07:10:28;;;;;;;5.30;1.53;;;3.50;54.20;;;;;;6158729;23;20437;-74
2022/02/08 07:12:55;;;;;;;5.07;2.40;;;3.50;54.50;;;;;;6158386;23;20341;-74
2022/02/08 07:15:21;;;;;;;5.05;2.08;;;3.60;54.10;;;;;;6184680;23;20417;-73
2022/02/08 07:17:47;;;;;;;4.88;1.88;;;3.50;55.10;;;;;;6158592;23;20005;-73
2022/02/08 07:20:13;;;;;;;3.23;1.23;;;3.60;54.80;;;;;;6184723;23;20060;-74
2022/02/08 07:22:40;;;;;;;1.77;1.30;;;3.70;54.80;;;;;;6184626;23;20001;-73
2022/02/08 07:25:06;;;;;;;2.70;1.10;;;3.70;55.90;;;;;;6184621;23;20008;-73
2022/02/08 07:27:32;;;;;;;4.35;1.60;;;3.80;55.80;;;;;;6184235;23;20012;-73
2022/02/08 07:29:58;;;;;;;3.35;1.45;;;3.90;54.60;;;;;;6184246;23;20330;-73
2022/02/08 07:32:36;;;;;;;3.72;1.73;;;4.00;53.80;;;;;;6184395;23;20012;-73
2022/02/08 07:41:34;;;;;;;1.77;1.38;;;4.20;55.50;;;;;;6185391;23;20009;-79
2022/02/08 07:43:14;;;;;;;1.90;1.80;;;4.20;57.60;;;;;;6185036;23;20345;-80
2022/02/08 07:45:40;;;;;;;3.33;2.00;;;4.30;55.60;;;;;;6158915;23;20007;-78
2022/02/08 07:48:06;;;;;;;13.20;4.07;;;4.40;54.60;;;;;;6185097;23;20001;-79
2022/02/08 07:50:37;;;;;;;7.00;3.92;;;4.50;52.80;;;;;;6185512;23;20009;-80
2022/02/08 07:53:03;;;;;;;10.43;3.92;;;4.50;51.80;;;;;;6184204;23;20033;-80
2022/02/08 07:55:29;;;;;;;13.18;3.80;;;4.60;51.70;;;;;;6155247;23;20456;-79
2022/02/08 07:58:03;;;;;;;9.23;3.63;;;4.70;51.90;;;;;;6182160;23;19999;-79
2022/02/08 08:00:29;;;;;;;11.45;3.70;;;4.70;51.20;;;;;;6182501;23;19997;-79
2022/02/08 08:02:55;;;;;;;6.55;3.33;;;4.80;51.40;;;;;;6181802;23;20008;-79
2022/02/08 08:05:21;;;;;;;8.65;2.95;;;4.90;51.10;;;;;;6180522;23;20005;-79
2022/02/08 08:07:46;;;;;;;11.93;3.97;;;4.90;52.10;;;;;;6154622;23;20012;-80
2022/02/08 08:10:18;;;;;;;4.35;3.42;;;4.90;51.80;;;;;;6181752;23;20009;-79
2022/02/08 08:12:49;;;;;;;3.88;2.60;;;5.00;51.50;;;;;;6181411;23;20336;-79
2022/02/08 08:15:33;;;;;;;4.28;2.85;;;5.00;51.80;;;;;;6182259;23;20390;-79
2022/02/08 08:18:12;;;;;;;9.63;3.53;;;5.00;51.80;;;;;;6157295;23;20008;-75
2022/02/08 08:20:38;;;;;;;7.28;3.83;;;5.00;51.70;;;;;;6158660;23;20005;-74
2022/02/08 08:23:03;;;;;;;4.75;3.10;;;5.10;52.10;;;;;;6184757;23;20059;-73
2022/02/08 08:25:29;;;;;;;7.70;3.75;;;5.10;51.70;;;;;;6183924;23;20015;-73
2022/02/08 08:27:55;;;;;;;3.33;3.03;;;5.20;51.20;;;;;;6184055;23;20104;-73
2022/02/08 08:30:20;;;;;;;5.18;3.40;;;5.20;51.50;;;;;;6184110;23;20005;-73
2022/02/08 08:32:46;;;;;;;3.53;3.17;;;5.30;52.30;;;;;;6184262;23;20321;-74
2022/02/08 08:35:15;;;;;;;3.72;2.92;;;5.30;52.20;;;;;;6157701;23;20004;-73
2022/02/08 08:37:43;;;;;;;5.72;3.40;;;5.40;50.30;;;;;;6157532;23;20001;-74
2022/02/08 08:53:17;;;;;;;2.55;1.92;;;5.90;46.30;;;;;;6183226;23;20009;-79
2022/02/08 08:55:43;;;;;;;1.90;1.65;;;5.90;46.10;;;;;;6182105;23;20001;-80
2022/02/08 08:58:08;;;;;;;2.13;1.88;;;5.90;45.60;;;;;;6176512;23;20005;-80
2022/02/08 09:00:34;;;;;;;3.65;2.17;;;5.90;44.90;;;;;;6177862;23;20016;-79
2022/02/08 09:03:00;;;;;;;4.60;2.25;;;5.90;45.50;;;;;;6177061;23;20508;-80
2022/02/08 09:05:26;;;;;;;3.50;2.10;;;6.00;44.90;;;;;;6178224;23;20009;-80
2022/02/08 09:07:52;;;;;;;5.35;2.05;;;6.00;44.10;;;;;;6178852;23;20005;-80
2022/02/08 09:10:22;;;;;;;7.50;2.72;;;6.00;45.00;;;;;;6178208;23;20005;-80
2022/02/08 09:28:09;;;;;;;4.88;2.78;;;6.40;44.90;;;;;;6178957;23;20048;-79
2022/02/08 09:30:40;;;;;;;4.47;2.85;;;6.50;45.60;;;;;;6178946;23;20005;-79
2022/02/08 09:33:06;;;;;;;6.50;2.63;;;6.50;45.40;;;;;;6178713;23;20295;-79
2022/02/08 09:35:32;;;;;;;2.95;2.67;;;6.60;45.80;;;;;;6177690;23;20011;-80
2022/02/08 09:37:58;;;;;;;5.85;2.70;;;6.60;44.80;;;;;;6178341;23;20338;-80
2022/02/08 09:40:25;;;;;;;4.22;2.97;;;6.70;45.80;;;;;;6151530;23;20001;-79
2022/02/08 09:42:53;;;;;;;6.70;2.92;;;6.80;45.70;;;;;;6177822;23;20295;-79
2022/02/08 09:45:20;;;;;;;2.83;2.25;;;6.90;45.10;;;;;;6178901;23;20063;-80
2022/02/08 09:50:34;;;;;;;3.22;2.63;;;7.00;45.40;;;;;;6178952;23;20345;-80
2022/02/08 09:53:03;;;;;;;5.25;2.33;;;7.20;43.90;;;;;;6151287;23;20005;-80
2022/02/08 09:55:38;;;;;;;3.25;2.40;;;7.30;43.90;;;;;;6177842;23;20008;-79
2022/02/08 09:58:04;;;;;;;2.92;2.70;;;7.40;44.20;;;;;;6178022;23;20012;-80
2022/02/08 10:00:34;;;;;;;3.92;2.65;;;7.40;43.40;;;;;;6152423;23;20028;-80
2022/02/08 10:03:09;;;;;;;9.23;4.15;;;7.50;43.50;;;;;;6180086;23;20084;-80
2022/02/08 10:05:43;;;;;;;4.72;3.35;;;7.50;44.90;;;;;;6183245;23;20032;-79
2022/02/08 10:08:09;;;;;;;5.63;3.58;;;7.60;43.70;;;;;;6183005;23;20005;-80
2022/02/08 10:10:35;;;;;;;7.38;3.50;;;7.60;44.20;;;;;;6184133;23;20084;-79
2022/02/08 10:13:15;;;;;;;7.85;3.25;;;7.70;44.60;;;;;;6184834;23;20008;-71
2022/02/08 10:24:05;;;;;;;3.42;3.13;;;7.80;46.40;;;;;;6179703;23;20012;-74
2022/02/08 10:26:41;;;;;;;5.72;2.80;;;7.80;46.80;;;;;;6179365;23;19997;-74
2022/02/08 10:29:18;;;;;;;4.22;2.85;;;7.80;46.50;;;;;;6152976;23;20009;-73
2022/02/08 10:40:22;;;;;;;3.80;2.67;;;7.90;44.40;;;;;;6180288;23;20424;-73
2022/02/08 10:42:53;;;;;;;7.10;3.40;;;8.00;45.40;;;;;;6156195;23;20385;-73
2022/02/08 10:45:25;;;;;;;6.33;3.10;;;8.10;44.90;;;;;;6152552;23;20333;-73
2022/02/08 10:47:55;;;;;;;;;;;8.10;46.70;;;;;;6180362;23;19993;-73
2022/02/08 10:50:22;;;;;;;5.82;3.17;;;8.20;47.40;;;;;;6180329;23;19936;-73
2022/02/08 10:52:48;;;;;;;5.68;3.65;;;8.30;46.20;;;;;;6152655;23;19997;-73
2022/02/08 10:55:25;;;;;;;7.32;3.28;;;8.40;46.30;;;;;;6179332;23;20012;-73
2022/02/08 11:00:33;;;;;;;5.80;3.50;;;8.60;49.00;;;;;;6181698;23;20028;-73
2022/02/08 11:03:02;;;;;;;7.13;3.25;;;8.70;47.10;;;;;;6153673;23;20005;-73
2022/02/08 11:08:18;;;;;;;5.15;3.20;;;8.80;44.40;;;;;;6181237;23;20448;-73
2022/02/08 11:11:00;;;;;;;5.93;3.50;;;8.80;45.00;;;;;;6179187;23;20011;-73
2022/02/08 11:13:39;;;;;;;7.07;3.35;;;8.90;46.40;;;;;;6152517;23;20047;-73
2022/02/08 11:16:25;;;;;;;5.00;3.58;;;9.10;45.60;;;;;;6153000;23;20116;-73
2022/02/08 11:21:45;;;;;;;6.97;3.92;;;9.30;45.00;;;;;;6180832;23;20342;-73
2022/02/08 11:24:24;;;;;;;7.80;3.63;;;9.30;46.40;;;;;;6179395;23;20001;-73
2022/02/08 11:26:56;;;;;;;7.65;3.35;;;9.40;46.30;;;;;;6179076;23;20009;-73
2022/02/08 11:29:31;;;;;;;8.35;3.88;;;9.50;46.70;;;;;;6179787;23;20008;-73
2022/02/08 11:32:34;;;;;;;8.63;3.63;;;9.50;46.40;;;;;;6153250;23;20045;-73
2022/02/08 11:51:57;;;;;;;1.23;1.00;;;10.60;37.10;;;;;;6181231;23;20005;-73
2022/02/08 11:54:34;;;;;;;1.83;1.17;;;10.70;36.20;;;;;;6178135;23;20032;-73
2022/02/08 12:05:46;;;;;;;1.60;1.50;;;11.20;35.10;;;;;;6179142;23;20015;-73
2022/02/08 12:07:51;;;;;;;3.50;1.77;;;11.40;35.30;;;;;;6157717;23;20012;-73
2022/02/08 12:57:47;;;;;;;4.07;1.75;;;12.50;33.70;;;;;;6180765;23;20445;-73
2022/02/08 14:16:14;;;;;;;3.08;2.20;;;11.80;35.90;;;;;;6179764;23;20016;-78
2022/02/08 14:29:27;;;;;;;5.45;2.58;;;11.70;36.90;;;;;;6134625;23;20013;-78
2022/02/08 14:32:17;;;;;;;4.85;2.85;;;11.70;36.80;;;;;;6179514;23;20089;-78
2022/02/08 15:09:28;;;;;;;9.05;2.95;;;11.40;37.50;;;;;;6179697;23;20013;-78
2022/02/08 15:14:37;;;;;;;5.32;3.78;;;11.30;38.80;;;;;;6182808;23;20036;-77
2022/02/08 15:17:03;;;;;;;4.13;3.55;;;11.30;39.20;;;;;;6179373;23;20225;-77
2022/02/08 15:19:29;;;;;;;7.20;3.50;;;11.20;38.60;;;;;;6153084;23;20012;-77
2022/02/08 15:21:55;;;;;;;6.25;3.83;;;11.30;38.00;;;;;;6153908;23;20055;-77
2022/02/08 15:24:21;;;;;;;4.68;3.58;;;11.30;37.50;;;;;;6179248;23;20445;-77
2022/02/08 15:26:51;;;;;;;4.55;2.78;;;11.20;37.80;;;;;;6178996;23;20080;-78
2022/02/08 15:29:17;;;;;;;6.78;3.53;;;11.20;38.40;;;;;;6153678;23;20012;-78
2022/02/08 15:31:43;;;;;;;4.50;3.13;;;11.10;38.40;;;;;;6179174;23;20001;-78
2022/02/08 15:34:11;;;;;;;5.75;3.33;;;11.10;38.00;;;;;;6179300;23;20016;-78
2022/02/08 15:36:37;;;;;;;4.40;3.08;;;11.00;38.40;;;;;;6179679;23;19998;-77
2022/02/08 15:39:09;;;;;;;6.80;3.22;;;10.90;38.80;;;;;;6178945;23;19997;-78
2022/02/08 15:41:39;;;;;;;9.13;3.70;;;10.80;39.80;;;;;;6180836;23;20005;-77
2022/02/08 15:44:11;;;;;;;10.52;5.07;;;10.80;40.70;;;;;;6184024;23;20009;-77
2022/02/08 15:46:37;;;;;;;17.63;6.60;;;10.70;42.50;;;;;;6184131;23;20080;-77
2022/02/08 15:49:03;;;;;;;12.68;7.07;;;10.60;43.80;;;;;;6157782;23;20043;-77
2022/02/08 15:51:59;;;;;;;19.55;12.20;;;10.50;44.50;;;;;;6184138;23;19997;-78
2022/02/08 16:10:17;;;;;;;21.20;8.68;;;9.80;48.30;;;;;;6183877;23;20040;-77
2022/02/08 16:22:45;;;;;;;16.52;6.47;;;9.30;48.90;;;;;;6182845;23;20040;-77
2022/02/08 16:31:03;;;;;;;7.65;4.00;;;9.20;48.50;;;;;;6183045;23;20112;-73
2022/02/08 16:57:19;;;;;;;4.90;3.97;;;8.70;49.20;;;;;;6181319;23;20377;-73
2022/02/08 16:59:39;;;;;;;6.78;3.90;;;8.70;49.30;;;;;;6162623;23;20016;-74
2022/02/08 17:02:07;;;;;;;4.55;4.13;;;8.60;49.20;;;;;;6152464;23;20008;-74
2022/02/08 17:04:35;;;;;;;4.10;3.35;;;8.60;49.30;;;;;;6151541;23;20032;-73
2022/02/08 17:07:01;;;;;;;5.88;3.80;;;8.50;49.20;;;;;;6155447;23;20016;-74
2022/02/08 17:09:52;;;;;;;5.32;3.80;;;8.50;49.20;;;;;;6156272;23;20033;-77
2022/02/08 17:12:24;;;;;;;6.57;3.97;;;8.50;49.20;;;;;;6182874;23;20005;-77
2022/02/08 17:15:34;;;;;;;;;;;8.40;49.20;;;;;;6179770;23;20263;-77
2022/02/08 17:50:01;;;;;;;6.43;3.83;;;8.10;48.60;;;;;;6186897;23;20087;-78
2022/02/08 17:52:27;;;;;;;8.80;4.07;;;8.00;48.50;;;;;;6183583;23;20005;-77
2022/02/08 17:54:52;;;;;;;8.10;5.30;;;8.00;48.50;;;;;;6184428;23;20028;-77
2022/02/08 17:57:18;;;;;;;3.70;3.40;;;8.00;48.60;;;;;;6186622;23;20005;-74
2022/02/08 17:59:45;;;;;;;6.43;3.60;;;8.20;58.80;;;;;;6159321;23;20009;-74
2022/02/08 18:02:10;;;;;;;5.63;3.58;;;8.40;58.60;;;;;;6159953;23;20062;-74
2022/02/08 18:04:36;;;;;;;6.80;3.92;;;8.50;55.60;;;;;;6186538;23;20080;-74
2022/02/08 18:07:03;;;;;;;8.38;4.40;;;8.50;54.50;;;;;;6186417;23;20549;-74
2022/02/08 18:09:29;;;;;;;11.77;5.05;;;8.50;53.10;;;;;;6185804;23;20005;-73
2022/02/08 18:11:59;;;;;;;33.13;6.28;;;8.60;54.50;;;;;;6186159;23;20431;-74
2022/02/08 18:14:25;;;;;;;19.40;5.95;;;8.60;56.50;;;;;;6186290;23;20001;-75
2022/02/08 18:17:02;;;;;;;18.13;5.22;;;8.70;55.30;;;;;;6183998;23;20686;-74
2022/02/08 18:19:33;;;;;;;12.43;5.28;;;8.80;54.20;;;;;;6182142;23;20004;-73
2022/02/08 18:22:22;;;;;;;12.52;4.75;;;8.70;53.10;;;;;;6181850;23;20531;-74
2022/02/08 18:25:17;;;;;;;11.98;4.95;;;8.70;53.90;;;;;;6181879;23;20009;-74
2022/02/08 19:13:11;;;;;;;9.75;4.97;;;7.30;50.30;;;;;;6186888;23;20066;-73
2022/02/08 19:20:43;;;;;;;9.05;4.60;;;7.10;51.30;;;;;;6185615;23;20013;-74
2022/02/08 19:23:08;;;;;;;11.18;4.65;;;7.10;51.70;;;;;;6159195;23;20005;-74
2022/02/08 19:25:34;;;;;;;14.70;4.80;;;7.00;51.60;;;;;;6185737;23;20004;-74
2022/02/08 19:28:01;;;;;;;8.05;4.75;;;7.00;51.50;;;;;;6184605;23;20438;-74
2022/02/08 19:30:27;;;;;;;12.32;4.72;;;6.90;51.60;;;;;;6184827;23;20036;-74
2022/02/08 19:32:53;;;;;;;7.10;5.10;;;6.90;51.60;;;;;;6185142;23;20001;-74
2022/02/08 19:35:20;;;;;;;7.80;5.22;;;6.80;51.60;;;;;;6158333;23;20031;-74
2022/02/08 19:37:47;;;;;;;7.63;4.32;;;6.80;51.90;;;;;;6159158;23;20049;-74
2022/02/08 19:40:13;;;;;;;5.05;4.38;;;6.70;51.90;;;;;;6185075;23;20009;-74
2022/02/08 19:42:39;;;;;;;7.75;4.63;;;6.70;51.80;;;;;;6184408;23;20072;-73
2022/02/08 19:45:19;;;;;;;6.53;4.97;;;6.70;51.70;;;;;;6185188;23;20012;-74
2022/02/08 19:47:45;;;;;;;12.48;4.93;;;6.70;51.90;;;;;;6158474;23;20009;-74
2022/02/08 19:50:11;;;;;;;6.18;4.60;;;6.70;52.20;;;;;;6159331;23;20005;-74
2022/02/08 19:52:39;;;;;;;4.47;4.03;;;6.70;52.10;;;;;;6158536;23;20012;-74
2022/02/08 19:57:32;;;;;;;6.35;4.90;;;6.70;52.10;;;;;;6185210;23;20005;-73
2022/02/08 19:59:58;;;;;;;8.13;4.78;;;6.60;52.10;;;;;;6184966;23;20008;-73
2022/02/08 20:02:29;;;;;;;9.40;4.13;;;6.60;52.30;;;;;;6158405;23;20076;-74
2022/02/08 20:04:55;;;;;;;8.27;5.22;;;6.60;52.30;;;;;;6158352;23;20016;-74
2022/02/08 20:07:21;;;;;;;10.00;6.20;;;6.60;52.20;;;;;;6185255;23;20080;-74
2022/02/08 20:09:47;;;;;;;10.65;5.07;;;6.60;52.40;;;;;;6185328;23;20314;-74
2022/02/08 20:12:13;;;;;;;5.78;4.45;;;6.50;52.60;;;;;;6185259;23;20005;-75
2022/02/08 20:14:50;;;;;;;5.88;4.20;;;6.50;52.80;;;;;;6184555;23;20012;-74
2022/02/08 20:17:16;;;;;;;8.40;5.05;;;6.50;52.60;;;;;;6158176;23;20365;-73
2022/02/08 20:19:46;;;;;;;10.52;5.18;;;6.50;52.20;;;;;;6180640;23;20004;-73
2022/02/08 20:22:13;;;;;;;9.80;5.00;;;6.50;52.20;;;;;;6151964;23;20318;-73
2022/02/08 20:24:39;;;;;;;7.22;4.90;;;6.50;52.20;;;;;;6177906;23;20001;-75
2022/02/08 20:29:35;;;;;;;9.43;5.95;;;6.50;52.50;;;;;;6180220;23;20124;-74
2022/02/08 20:32:01;;;;;;;6.13;4.35;;;6.50;52.40;;;;;;6152328;23;20012;-74
2022/02/08 20:34:29;;;;;;;9.70;4.70;;;6.50;52.40;;;;;;6152084;23;20005;-73
2022/02/08 20:36:57;;;;;;;7.07;4.80;;;6.50;52.20;;;;;;6152761;23;20468;-73
2022/02/08 20:39:23;;;;;;;12.98;5.00;;;6.50;52.40;;;;;;6154263;23;20005;-73
2022/02/08 20:41:50;;;;;;;10.68;4.78;;;6.40;52.40;;;;;;6181542;23;19997;-73
2022/02/08 20:44:17;;;;;;;7.30;4.75;;;6.40;52.60;;;;;;6152979;23;20017;-73
2022/02/08 20:46:51;;;;;;;7.20;4.82;;;6.50;52.60;;;;;;6179753;23;20052;-73
2022/02/08 20:49:17;;;;;;;12.02;5.18;;;6.50;53.40;;;;;;6155128;23;20005;-73
2022/02/08 20:51:45;;;;;;;6.95;4.65;;;6.50;52.60;;;;;;6180909;23;20071;-74
2022/02/08 20:54:13;;;;;;;6.63;5.07;;;6.50;52.50;;;;;;6154536;23;20005;-73
2022/02/08 20:56:40;;;;;;;6.20;5.07;;;6.50;52.50;;;;;;6157990;23;20092;-73
2022/02/08 20:59:11;;;;;;;9.40;5.18;;;6.50;52.30;;;;;;6184461;23;19997;-74
2022/02/08 21:01:42;;;;;;;13.13;5.05;;;6.50;52.20;;;;;;6158007;23;20437;-74
2022/02/08 21:04:25;;;;;;;9.75;4.78;;;6.50;52.20;;;;;;6183632;23;20004;-74
2022/02/08 21:06:52;;;;;;;6.22;5.00;;;6.50;52.50;;;;;;6184227;23;20001;-74
2022/02/08 21:09:20;;;;;;;7.50;4.22;;;6.50;52.60;;;;;;6184462;23;20421;-74
2022/02/08 21:11:55;;;;;;;10.07;5.40;;;6.50;52.70;;;;;;6184954;23;19998;-74
2022/02/08 21:14:22;;;;;;;14.70;6.13;;;6.40;52.60;;;;;;6184262;23;20080;-74
2022/02/08 21:16:55;;;;;;;10.85;6.38;;;6.40;52.90;;;;;;6184907;23;19997;-74
2022/02/08 21:19:28;;;;;;;10.82;6.57;;;6.40;53.20;;;;;;6184846;23;20430;-74
2022/02/08 21:21:55;;;;;;;6.40;4.90;;;6.30;53.30;;;;;;6183865;23;20001;-74
2022/02/08 21:24:23;;;;;;;10.25;4.75;;;6.30;53.30;;;;;;6158278;23;20012;-74
2022/02/08 21:26:56;;;;;;;4.38;3.95;;;6.30;53.20;;;;;;6184679;23;20004;-74
2022/02/08 21:53:13;;;;;;;10.57;4.45;;;6.00;54.00;;;;;;6182392;23;20020;-74
2022/02/08 21:55:39;;;;;;;6.30;4.40;;;6.00;54.20;;;;;;6179285;23;20031;-73
2022/02/08 21:58:07;;;;;;;6.80;4.82;;;6.00;54.40;;;;;;6180355;23;20021;-73
2022/02/08 22:00:35;;;;;;;5.10;3.72;;;5.90;54.50;;;;;;6178976;23;20436;-73
2022/02/08 22:03:00;;;;;;;6.13;4.00;;;5.90;54.40;;;;;;6178704;23;20088;-73
2022/02/08 22:05:27;;;;;;;10.00;4.50;;;5.90;54.30;;;;;;6152942;23;20036;-73
2022/02/08 22:08:07;;;;;;;5.20;4.20;;;5.90;54.40;;;;;;6180394;23;20373;-74